createdAt,value
2023-01-05T00:01:50.761Z,9.40
2023-01-05T00:04:18.206Z,9.30
2023-01-05T00:06:45.295Z,9.20
2023-01-05T00:09:15.743Z,9.20
2023-01-05T00:12:01.850Z,9.20
2023-01-05T00:14:49.420Z,9.10
2023-01-05T00:17:38.523Z,9.20
2023-01-05T00:20:26.037Z,9.20
2023-01-05T00:22:54.442Z,9.10
2023-01-05T00:25:24.260Z,9.10
2023-01-05T00:27:53.867Z,9.10
2023-01-05T00:30:26.240Z,9.20
2023-01-05T00:32:53.674Z,9.30
2023-01-05T00:35:22.041Z,9.30
2023-01-05T00:37:50.161Z,9.30
2023-01-05T00:40:20.040Z,9.30
2023-01-05T00:42:47.636Z,9.40
2023-01-05T00:45:17.053Z,9.40
2023-01-05T00:47:44.907Z,9.40
2023-01-05T00:50:15.794Z,9.50
2023-01-05T00:52:43.248Z,9.50
2023-01-05T00:55:11.036Z,9.50
2023-01-05T00:57:38.265Z,9.60
2023-01-05T01:00:07.262Z,9.60
2023-01-05T01:02:35.313Z,9.60
2023-01-05T01:05:02.563Z,9.70
2023-01-05T01:07:30.942Z,9.70
2023-01-05T01:09:58.361Z,9.80
2023-01-05T01:12:25.565Z,9.80
2023-01-05T01:14:52.635Z,9.90
2023-01-05T01:17:19.803Z,10.00
2023-01-05T01:19:46.974Z,10.00
2023-01-05T01:22:14.336Z,10.00
2023-01-05T01:24:41.590Z,10.10
2023-01-05T01:27:08.872Z,10.10
2023-01-05T01:29:35.942Z,10.10
2023-01-05T01:32:03.169Z,10.10
2023-01-05T01:34:30.346Z,10.10
2023-01-05T01:36:59.227Z,10.10
2023-01-05T01:39:31.438Z,10.20
2023-01-05T01:42:04.350Z,10.20
2023-01-05T01:44:49.848Z,10.30
2023-01-05T01:47:34.359Z,10.40
2023-01-05T01:50:28.476Z,10.40
2023-01-05T01:53:00.220Z,10.40
2023-01-05T01:55:29.660Z,10.30
2023-01-05T01:57:58.007Z,10.20
2023-01-05T02:00:25.370Z,10.20
2023-01-05T02:02:55.038Z,10.30
2023-01-05T02:05:29.205Z,10.20
2023-01-05T02:07:56.646Z,10.20
2023-01-05T02:10:32.935Z,10.20
2023-01-05T02:13:32.617Z,10.20
2023-01-05T02:15:59.774Z,10.20
2023-01-05T02:18:39.055Z,10.10
2023-01-05T02:21:17.285Z,10.00
2023-01-05T02:24:00.008Z,10.00
2023-01-05T02:26:48.414Z,10.10
2023-01-05T02:29:28.133Z,10.10
2023-01-05T02:32:23.386Z,10.20
2023-01-05T02:35:16.510Z,10.20
2023-01-05T02:38:18.116Z,10.30
2023-01-05T02:40:54.565Z,10.30
2023-01-05T02:43:21.924Z,10.20
2023-01-05T02:45:49.441Z,10.20
2023-01-05T02:48:16.597Z,10.20
2023-01-05T02:51:01.542Z,10.20
2023-01-05T02:53:47.645Z,10.10
2023-01-05T02:56:25.852Z,10.10
2023-01-05T02:59:11.956Z,10.10
2023-01-05T03:01:51.489Z,10.10
2023-01-05T03:04:33.411Z,10.10
2023-01-05T03:07:07.408Z,10.10
2023-01-05T03:09:38.892Z,10.10
2023-01-05T03:12:51.025Z,10.10
2023-01-05T03:15:33.950Z,10.20
2023-01-05T03:18:06.389Z,10.30
2023-01-05T03:20:38.556Z,10.20
2023-01-05T03:23:26.943Z,10.20
2023-01-05T03:26:13.954Z,10.20
2023-01-05T03:29:04.000Z,10.20
2023-01-05T03:31:56.624Z,10.20
2023-01-05T03:34:48.468Z,10.20
2023-01-05T03:37:47.245Z,10.20
2023-01-05T03:40:24.129Z,10.10
2023-01-05T03:42:54.144Z,10.10
2023-01-05T03:45:23.738Z,10.10
2023-01-05T03:47:51.303Z,10.10
2023-01-05T03:50:23.459Z,10.10
2023-01-05T03:52:50.541Z,10.10
2023-01-05T03:55:17.627Z,10.10
2023-01-05T03:57:44.776Z,10.10
2023-01-05T04:00:14.363Z,10.10
2023-01-05T04:02:55.100Z,10.10
2023-01-05T04:05:23.295Z,10.00
2023-01-05T04:07:50.958Z,10.00
2023-01-05T04:10:18.097Z,9.90
2023-01-05T04:12:46.408Z,9.80
2023-01-05T04:15:14.507Z,9.80
2023-01-05T04:17:41.780Z,9.80
2023-01-05T04:20:12.205Z,9.80
2023-01-05T04:22:39.571Z,9.70
2023-01-05T04:25:08.508Z,9.60
2023-01-05T04:27:35.702Z,9.60
2023-01-05T04:30:05.966Z,9.50
2023-01-05T04:32:33.940Z,9.40
2023-01-05T04:35:07.043Z,9.30
2023-01-05T04:37:39.803Z,9.30
2023-01-05T04:40:08.557Z,9.20
2023-01-05T04:42:43.868Z,9.10
2023-01-05T04:45:11.365Z,9.10
2023-01-05T04:47:38.586Z,9.10
2023-01-05T04:50:06.666Z,9.10
2023-01-05T04:52:34.119Z,9.10
2023-01-05T04:55:02.631Z,9.00
2023-01-05T04:57:30.682Z,9.00
2023-01-05T04:59:58.498Z,8.90
2023-01-05T05:02:25.728Z,8.90
2023-01-05T05:04:52.938Z,8.80
2023-01-05T05:07:21.262Z,8.70
2023-01-05T05:09:48.576Z,8.50
2023-01-05T05:12:20.433Z,8.40
2023-01-05T05:14:50.631Z,8.40
2023-01-05T05:17:18.364Z,8.30
2023-01-05T05:19:45.464Z,8.20
2023-01-05T05:22:13.357Z,8.20
2023-01-05T05:24:41.547Z,8.20
2023-01-05T05:27:09.178Z,8.20
2023-01-05T05:29:36.225Z,8.20
2023-01-05T05:32:03.360Z,8.20
2023-01-05T05:34:30.496Z,8.10
2023-01-05T05:36:57.491Z,8.10
2023-01-05T05:39:24.539Z,8.20
2023-01-05T05:41:51.607Z,8.20
2023-01-05T05:44:18.799Z,8.20
2023-01-05T05:46:45.873Z,8.10
2023-01-05T05:49:13.735Z,8.10
2023-01-05T05:51:40.852Z,8.10
2023-01-05T05:54:07.927Z,8.10
2023-01-05T05:56:35.027Z,8.10
2023-01-05T05:59:02.114Z,8.10
2023-01-05T06:01:29.562Z,8.10
2023-01-05T06:03:56.858Z,8.10
2023-01-05T06:06:23.881Z,8.10
2023-01-05T06:08:50.923Z,8.10
2023-01-05T06:11:17.958Z,8.10
2023-01-05T06:13:45.046Z,8.10
2023-01-05T06:16:12.125Z,8.10
2023-01-05T06:18:39.218Z,8.10
2023-01-05T06:21:06.560Z,8.10
2023-01-05T06:23:33.703Z,8.20
2023-01-05T06:26:00.866Z,8.20
2023-01-05T06:28:27.919Z,8.20
2023-01-05T06:30:54.961Z,8.20
2023-01-05T06:33:22.074Z,8.30
2023-01-05T06:35:49.116Z,8.20
2023-01-05T06:38:16.692Z,8.20
2023-01-05T06:40:46.215Z,8.30
2023-01-05T06:43:13.530Z,8.30
2023-01-05T06:45:40.592Z,8.40
2023-01-05T06:48:07.757Z,8.40
2023-01-05T06:50:34.941Z,8.40
2023-01-05T06:53:02.233Z,8.50
2023-01-05T06:55:29.620Z,8.40
2023-01-05T06:58:00.736Z,8.50
2023-01-05T07:00:29.003Z,8.50
2023-01-05T07:02:56.204Z,8.40
2023-01-05T07:05:24.762Z,8.50
2023-01-05T07:07:51.914Z,8.50
2023-01-05T07:10:19.183Z,8.50
2023-01-05T07:12:46.218Z,8.50
2023-01-05T07:15:13.293Z,8.60
2023-01-05T07:17:40.283Z,8.60
2023-01-05T07:20:08.114Z,8.60
2023-01-05T07:22:35.147Z,8.60
2023-01-05T07:25:02.288Z,8.60
2023-01-05T07:27:29.441Z,8.60
2023-01-05T07:29:56.490Z,8.70
2023-01-05T07:32:23.675Z,8.70
2023-01-05T07:34:55.328Z,8.80
2023-01-05T07:37:24.870Z,8.80
2023-01-05T07:39:52.691Z,8.80
2023-01-05T07:42:19.884Z,8.90
2023-01-05T07:44:48.673Z,8.90
2023-01-05T07:47:15.728Z,8.90
2023-01-05T07:49:42.773Z,8.90
2023-01-05T07:52:09.967Z,8.90
2023-01-05T07:54:37.195Z,8.90
2023-01-05T07:57:04.513Z,8.90
2023-01-05T07:59:31.801Z,8.90
2023-01-05T08:01:58.975Z,9.00
2023-01-05T08:04:26.250Z,9.00
2023-01-05T08:06:53.328Z,9.10
2023-01-05T08:09:38.880Z,9.10
2023-01-05T08:12:06.218Z,9.10
2023-01-05T08:14:33.376Z,9.10
2023-01-05T08:17:00.438Z,9.20
2023-01-05T08:19:27.575Z,9.20
2023-01-05T08:21:54.657Z,9.20
2023-01-05T08:24:21.708Z,9.20
2023-01-05T08:26:50.793Z,9.20
2023-01-05T08:29:18.026Z,9.20
2023-01-05T08:31:45.073Z,9.20
2023-01-05T08:34:12.201Z,9.10
2023-01-05T08:36:40.218Z,9.10
2023-01-05T08:39:09.836Z,9.10
2023-01-05T08:41:39.141Z,9.20
2023-01-05T08:44:10.605Z,9.20
2023-01-05T08:46:37.815Z,9.20
2023-01-05T08:49:07.465Z,9.30
2023-01-05T08:51:35.278Z,9.40
2023-01-05T08:54:02.322Z,9.50
2023-01-05T08:56:34.643Z,9.50
2023-01-05T08:59:05.408Z,9.50
2023-01-05T09:01:32.727Z,9.60
2023-01-05T09:03:59.972Z,9.60
2023-01-05T09:06:27.446Z,9.60
2023-01-05T09:08:55.076Z,9.60
2023-01-05T09:11:25.841Z,9.70
2023-01-05T09:13:55.341Z,9.70
2023-01-05T09:19:12.498Z,9.70
2023-01-05T09:21:39.760Z,9.70
2023-01-05T09:24:08.444Z,9.70
2023-01-05T09:26:35.571Z,9.80
2023-01-05T09:29:02.565Z,9.80
2023-01-05T09:31:29.930Z,9.80
2023-01-05T09:33:58.391Z,9.80
2023-01-05T09:36:28.716Z,9.80
2023-01-05T09:38:58.879Z,9.70
2023-01-05T09:41:29.270Z,9.70
2023-01-05T09:44:04.594Z,9.60
2023-01-05T09:46:40.075Z,9.60
2023-01-05T09:49:12.731Z,9.60
2023-01-05T09:51:40.228Z,9.60
2023-01-05T09:54:08.481Z,9.50
2023-01-05T09:57:08.074Z,9.50
2023-01-05T09:59:34.923Z,9.60
2023-01-05T10:02:15.151Z,9.60
2023-01-05T10:04:42.870Z,9.70
2023-01-05T10:07:39.462Z,9.70
2023-01-05T10:10:30.154Z,9.70
2023-01-05T10:13:07.210Z,9.70
2023-01-05T10:15:49.115Z,9.70
2023-01-05T10:18:26.416Z,9.80
2023-01-05T10:21:11.587Z,9.80
2023-01-05T10:23:56.775Z,9.80
2023-01-05T10:27:23.496Z,9.80
2023-01-05T10:29:47.123Z,9.80
2023-01-05T10:32:14.152Z,9.90
2023-01-05T10:34:57.845Z,10.00
2023-01-05T10:37:41.331Z,10.10
2023-01-05T10:40:38.416Z,10.20
2023-01-05T10:43:20.232Z,10.40
2023-01-05T10:46:20.378Z,10.40
2023-01-05T10:48:36.494Z,10.40
2023-01-05T10:51:04.728Z,10.30
2023-01-05T10:53:35.498Z,10.20
2023-01-05T10:56:25.605Z,9.60
2023-01-05T10:59:10.572Z,8.90
2023-01-05T11:01:38.141Z,8.30
2023-01-05T11:04:36.408Z,8.10
2023-01-05T11:07:07.430Z,8.00
2023-01-05T11:09:40.175Z,7.90
2023-01-05T11:12:19.436Z,7.90
2023-01-05T11:14:58.142Z,8.00
2023-01-05T11:17:28.493Z,7.90
2023-01-05T11:19:57.630Z,7.80
2023-01-05T11:22:30.792Z,7.80
2023-01-05T11:25:31.206Z,7.70
2023-01-05T11:28:12.168Z,7.80
2023-01-05T11:30:48.201Z,7.80
2023-01-05T11:33:25.469Z,7.80
2023-01-05T11:35:53.320Z,7.70
2023-01-05T11:38:29.661Z,7.80
2023-01-05T11:40:58.630Z,7.70
2023-01-05T11:43:28.726Z,7.70
2023-01-05T11:45:59.802Z,7.70
2023-01-05T11:48:32.257Z,7.60
2023-01-05T11:50:59.398Z,7.70
2023-01-05T11:53:37.826Z,7.60
2023-01-05T11:56:24.831Z,7.70
2023-01-05T11:58:58.057Z,7.70
2023-01-05T12:02:04.303Z,7.80
2023-01-05T12:05:01.604Z,7.90
2023-01-05T12:07:37.411Z,8.00
2023-01-05T12:10:33.098Z,7.90
2023-01-05T12:13:24.287Z,7.90
2023-01-05T12:16:09.668Z,8.00
2023-01-05T12:18:47.237Z,8.10
2023-01-05T12:21:24.996Z,8.10
2023-01-05T12:23:57.510Z,8.10
2023-01-05T12:26:55.016Z,8.20
2023-01-05T12:31:29.495Z,8.20
2023-01-05T12:35:49.084Z,8.30
2023-01-05T12:38:43.359Z,8.20
2023-01-05T12:41:16.497Z,8.10
2023-01-05T12:44:14.870Z,8.20
2023-01-05T12:46:51.046Z,8.30
2023-01-05T12:49:24.222Z,8.50
2023-01-05T12:52:01.009Z,8.60
2023-01-05T12:54:44.467Z,8.70
2023-01-05T12:57:19.075Z,8.60
2023-01-05T13:00:21.926Z,8.60
2023-01-05T13:03:00.616Z,8.70
2023-01-05T13:05:46.255Z,8.70
2023-01-05T13:08:35.023Z,8.70
2023-01-05T13:11:27.505Z,8.60
2023-01-05T13:14:07.316Z,8.60
2023-01-05T13:16:41.333Z,8.60
2023-01-05T13:19:30.798Z,8.70
2023-01-05T13:22:01.880Z,8.70
2023-01-05T13:24:46.463Z,8.60
2023-01-05T13:27:14.820Z,8.60
2023-01-05T13:29:48.382Z,8.60
2023-01-05T13:32:28.380Z,8.70
2023-01-05T13:35:04.506Z,8.70
2023-01-05T13:37:52.061Z,8.80
2023-01-05T13:40:51.248Z,8.70
2023-01-05T13:43:51.018Z,8.80
2023-01-05T13:46:30.864Z,8.80
2023-01-05T13:49:13.021Z,8.80
2023-01-05T13:52:17.981Z,8.70
2023-01-05T13:55:01.566Z,8.60
2023-01-05T13:57:41.298Z,8.60
2023-01-05T14:00:29.117Z,8.70
2023-01-05T14:03:02.558Z,8.70
2023-01-05T14:05:33.251Z,8.70
2023-01-05T14:08:04.520Z,8.70
2023-01-05T14:10:33.656Z,8.60
2023-01-05T14:13:00.934Z,8.60
2023-01-05T14:15:43.088Z,8.50
2023-01-05T14:18:33.528Z,8.40
2023-01-05T14:21:10.723Z,8.30
2023-01-05T14:23:37.748Z,8.20
2023-01-05T14:26:09.496Z,8.20
2023-01-05T14:28:36.501Z,8.30
2023-01-05T14:31:16.012Z,8.30
2023-01-05T14:33:52.369Z,8.20
2023-01-05T14:36:41.340Z,8.20
2023-01-05T14:39:23.431Z,8.20
2023-01-05T14:41:57.369Z,8.20
2023-01-05T14:44:33.536Z,8.10
2023-01-05T14:47:01.611Z,8.10
2023-01-05T14:49:37.178Z,8.20
2023-01-05T14:52:07.457Z,8.20
2023-01-05T14:54:42.023Z,8.10
2023-01-05T14:57:21.254Z,8.10
2023-01-05T14:59:50.403Z,8.10
2023-01-05T15:02:27.010Z,8.10
2023-01-05T15:05:00.261Z,8.10
2023-01-05T15:07:45.531Z,8.10
2023-01-05T15:10:50.858Z,8.10
2023-01-05T15:14:14.895Z,8.10
2023-01-05T15:16:45.743Z,8.10
2023-01-05T15:19:33.063Z,8.20
2023-01-05T15:22:36.515Z,8.20
2023-01-05T15:25:30.521Z,8.20
2023-01-05T15:28:33.287Z,8.20
2023-01-05T15:31:33.936Z,8.10
2023-01-05T15:34:27.216Z,8.20
2023-01-05T15:36:56.551Z,8.20
2023-01-05T15:39:25.128Z,8.20
2023-01-05T15:41:54.794Z,8.20
2023-01-05T15:44:22.986Z,8.20
2023-01-05T15:46:50.579Z,8.20
2023-01-05T15:49:22.837Z,8.10
2023-01-05T15:51:52.550Z,8.20
2023-01-05T15:54:31.641Z,8.20
2023-01-05T15:57:01.151Z,8.20
2023-01-05T15:59:28.321Z,8.20
2023-01-05T16:01:55.638Z,8.20
2023-01-05T16:04:22.872Z,8.20
2023-01-05T16:07:02.034Z,8.20
2023-01-05T16:09:40.106Z,8.20
2023-01-05T16:12:23.608Z,8.20
2023-01-05T16:14:57.862Z,8.20
2023-01-05T16:17:27.922Z,8.10
2023-01-05T16:20:00.816Z,8.10
2023-01-05T16:22:42.082Z,8.10
2023-01-05T16:25:18.372Z,8.10
2023-01-05T16:27:49.931Z,8.10
2023-01-05T16:30:38.655Z,8.20
2023-01-05T16:33:11.811Z,8.10
2023-01-05T16:35:59.110Z,8.10
2023-01-05T16:38:31.054Z,8.10
2023-01-05T16:41:21.243Z,8.10
2023-01-05T16:43:59.032Z,8.10
2023-01-05T16:46:35.568Z,8.00
2023-01-05T16:49:27.177Z,8.00
2023-01-05T16:51:56.603Z,8.00
2023-01-05T16:54:47.056Z,8.00
2023-01-05T16:57:38.549Z,8.00
2023-01-05T17:00:25.635Z,8.00
2023-01-05T17:02:54.286Z,8.00
2023-01-05T17:05:24.233Z,8.00
2023-01-05T17:08:15.345Z,8.00
2023-01-05T17:10:42.802Z,7.90
2023-01-05T17:13:22.472Z,8.00
2023-01-05T17:15:51.433Z,7.90
2023-01-05T17:18:25.603Z,7.90
2023-01-05T17:20:54.677Z,7.90
2023-01-05T17:23:31.309Z,7.90
2023-01-05T17:26:11.712Z,7.80
2023-01-05T17:28:40.837Z,7.90
2023-01-05T17:31:10.195Z,7.80
2023-01-05T17:33:37.288Z,7.80
2023-01-05T17:36:04.945Z,7.80
2023-01-05T17:38:31.987Z,7.80
2023-01-05T17:40:59.135Z,7.80
2023-01-05T17:43:26.623Z,7.80
2023-01-05T17:45:53.826Z,7.80
2023-01-05T17:48:20.966Z,7.80
2023-01-05T17:50:48.348Z,7.90
2023-01-05T17:53:15.423Z,7.90
2023-01-05T17:55:44.069Z,7.90
2023-01-05T17:58:14.374Z,7.90
2023-01-05T18:03:15.947Z,7.90
2023-01-05T18:05:44.524Z,7.90
2023-01-05T18:08:12.225Z,7.90
2023-01-05T18:13:12.847Z,7.90
2023-01-05T18:15:45.044Z,7.90
2023-01-05T18:18:13.679Z,8.00
2023-01-05T18:20:42.185Z,8.00
2023-01-05T18:23:10.431Z,8.00
2023-01-05T18:25:39.486Z,7.90
2023-01-05T18:28:06.775Z,7.90
2023-01-05T18:30:33.925Z,7.90
2023-01-05T18:33:01.342Z,7.90
2023-01-05T18:35:28.684Z,7.90
2023-01-05T18:40:28.821Z,7.90
2023-01-05T18:42:55.939Z,7.80
2023-01-05T18:45:31.935Z,7.80
2023-01-05T18:47:59.469Z,7.80
2023-01-05T18:50:26.618Z,7.80
2023-01-05T18:52:53.834Z,7.80
2023-01-05T18:55:21.051Z,7.80
2023-01-05T18:57:48.101Z,7.80
2023-01-05T19:00:15.901Z,7.70
2023-01-05T19:02:42.965Z,7.70
2023-01-05T19:05:10.229Z,7.70
2023-01-05T19:07:38.966Z,7.70
2023-01-05T19:10:06.435Z,7.70
2023-01-05T19:12:33.604Z,7.70
2023-01-05T19:15:00.613Z,7.60
2023-01-05T19:17:27.839Z,7.60
2023-01-05T19:19:57.598Z,7.60
2023-01-05T19:22:24.792Z,7.40
2023-01-05T19:24:51.780Z,7.50
2023-01-05T19:27:18.968Z,7.40
2023-01-05T19:29:46.038Z,7.30
2023-01-05T19:32:13.485Z,7.30
2023-01-05T19:34:41.989Z,7.30
2023-01-05T19:37:09.133Z,7.20
2023-01-05T19:39:36.322Z,7.20
2023-01-05T19:42:03.633Z,7.10
2023-01-05T19:44:30.876Z,7.10
2023-01-05T19:46:58.020Z,7.00
2023-01-05T19:49:27.453Z,6.90
2023-01-05T19:51:55.132Z,6.90
2023-01-05T19:54:22.904Z,6.90
2023-01-05T19:56:50.892Z,6.90
2023-01-05T19:59:26.245Z,6.80
2023-01-05T20:01:55.011Z,6.70
2023-01-05T20:04:22.080Z,6.70
2023-01-05T20:06:49.597Z,6.60
2023-01-05T20:09:19.208Z,6.50
2023-01-05T20:11:53.052Z,6.50
2023-01-05T20:14:26.939Z,6.50
2023-01-05T20:17:08.304Z,6.50
2023-01-05T20:19:37.142Z,6.60
2023-01-05T20:22:06.320Z,6.60
2023-01-05T20:24:36.304Z,6.60
2023-01-05T20:27:07.457Z,6.50
2023-01-05T20:29:35.691Z,6.60
2023-01-05T20:32:06.294Z,6.50
2023-01-05T20:34:36.392Z,6.40
2023-01-05T20:37:05.595Z,6.40
2023-01-05T20:39:32.979Z,6.30
2023-01-05T20:42:04.950Z,6.30
2023-01-05T20:44:38.316Z,6.20
2023-01-05T20:47:07.133Z,6.20
2023-01-05T20:49:35.748Z,6.20
2023-01-05T20:52:03.792Z,6.10
2023-01-05T20:54:30.900Z,6.10
2023-01-05T20:56:58.039Z,6.10
2023-01-05T20:59:28.307Z,6.10
2023-01-05T21:01:56.028Z,6.00
2023-01-05T21:04:24.250Z,6.00
2023-01-05T21:06:54.386Z,6.00
2023-01-05T21:09:25.793Z,6.00
2023-01-05T21:11:52.956Z,6.00
2023-01-05T21:14:20.176Z,6.00
2023-01-05T21:16:50.225Z,5.90
2023-01-05T21:19:22.046Z,6.00
2023-01-05T21:21:52.135Z,6.00
2023-01-05T21:24:19.509Z,5.90
2023-01-05T21:26:46.783Z,5.90
2023-01-05T21:29:16.181Z,5.90
2023-01-05T21:31:43.676Z,6.00
2023-01-05T21:34:11.853Z,6.00
2023-01-05T21:36:43.393Z,6.00
2023-01-05T21:39:17.482Z,6.00
2023-01-05T21:42:03.393Z,5.90
2023-01-05T21:44:30.880Z,5.90
2023-01-05T21:46:58.046Z,5.90
2023-01-05T21:49:25.611Z,5.90
2023-01-05T21:52:11.053Z,5.90
2023-01-05T21:54:56.753Z,6.00
2023-01-05T21:57:24.104Z,6.00
2023-01-05T21:59:51.304Z,5.90
2023-01-05T22:02:18.468Z,5.80
2023-01-05T22:04:45.930Z,5.80
2023-01-05T22:07:13.066Z,5.80
2023-01-05T22:09:40.176Z,5.90
2023-01-05T22:12:11.008Z,5.70
2023-01-05T22:14:38.935Z,5.80
2023-01-05T22:17:08.119Z,5.70
2023-01-05T22:19:36.254Z,5.70
2023-01-05T22:22:03.810Z,5.60
2023-01-05T22:24:30.934Z,5.70
2023-01-05T22:26:58.182Z,5.60
2023-01-05T22:29:25.330Z,5.60
2023-01-05T22:31:52.517Z,5.50
2023-01-05T22:34:19.861Z,5.50
2023-01-05T22:36:47.068Z,5.50
2023-01-05T22:39:14.234Z,5.50
2023-01-05T22:41:41.365Z,5.50
2023-01-05T22:44:08.832Z,5.50
2023-01-05T22:46:35.946Z,5.50
2023-01-05T22:49:03.258Z,5.40
2023-01-05T22:51:36.099Z,5.30
2023-01-05T22:54:04.501Z,5.30
2023-01-05T22:56:32.943Z,5.30
2023-01-05T22:59:01.076Z,5.30
2023-01-05T23:01:34.329Z,5.30
2023-01-05T23:04:03.100Z,5.30
2023-01-05T23:06:30.740Z,5.30
2023-01-05T23:08:58.835Z,5.20
2023-01-05T23:11:28.774Z,5.20
2023-01-05T23:13:58.125Z,5.00
2023-01-05T23:16:26.069Z,5.00
2023-01-05T23:18:53.539Z,5.00
2023-01-05T23:21:23.082Z,5.00
2023-01-05T23:23:56.702Z,5.00
2023-01-05T23:26:26.223Z,4.90
2023-01-05T23:28:53.725Z,4.90
2023-01-05T23:31:21.276Z,4.90
2023-01-05T23:33:48.883Z,4.80
2023-01-05T23:36:17.477Z,4.80
2023-01-05T23:38:45.046Z,4.80
2023-01-05T23:41:13.914Z,4.70
2023-01-05T23:43:42.898Z,4.70
2023-01-05T23:46:12.985Z,4.70
2023-01-05T23:48:40.419Z,4.60
2023-01-05T23:51:13.339Z,4.60
2023-01-05T23:53:44.531Z,4.60
2023-01-05T23:56:20.701Z,4.60
2023-01-05T23:58:48.528Z,4.60
